sensor_id;sensor_type;location;lat;lon;timestamp;temperature;humidity
782;DHT22;374;52.568;13.402;2022-10-16T00:00:20;16.10;99.90
782;DHT22;374;52.568;13.402;2022-10-16T00:02:45;16.10;99.90
782;DHT22;374;52.568;13.402;2022-10-16T00:05:11;17.10;99.90
782;DHT22;374;52.568;13.402;2022-10-16T00:07:36;16.10;99.90
782;DHT22;374;52.568;13.402;2022-10-16T00:10:02;16.20;99.90
782;DHT22;374;52.568;13.402;2022-10-16T00:12:28;16.20;99.90
782;DHT22;374;52.568;13.402;2022-10-16T00:14:53;16.20;99.90
782;DHT22;374;52.568;13.402;2022-10-16T00:17:19;16.20;99.90
782;DHT22;374;52.568;13.402;2022-10-16T00:19:44;16.20;99.90
782;DHT22;374;52.568;13.402;2022-10-16T00:22:10;16.20;99.90
782;DHT22;374;52.568;13.402;2022-10-16T00:24:36;16.20;99.90
782;DHT22;374;52.568;13.402;2022-10-16T00:27:01;16.20;99.90
782;DHT22;374;52.568;13.402;2022-10-16T00:29:27;16.20;99.90
782;DHT22;374;52.568;13.402;2022-10-16T00:31:52;16.20;99.90
782;DHT22;374;52.568;13.402;2022-10-16T00:34:18;16.20;99.90
782;DHT22;374;52.568;13.402;2022-10-16T00:36:50;16.20;99.90
782;DHT22;374;52.568;13.402;2022-10-16T00:39:15;15.70;99.90
782;DHT22;374;52.568;13.402;2022-10-16T00:41:41;16.20;99.90
782;DHT22;374;52.568;13.402;2022-10-16T00:47:26;16.20;99.90
782;DHT22;374;52.568;13.402;2022-10-16T00:49:58;16.20;99.90
782;DHT22;374;52.568;13.402;2022-10-16T00:52:25;16.20;99.90
782;DHT22;374;52.568;13.402;2022-10-16T00:54:52;16.20;99.90
782;DHT22;374;52.568;13.402;2022-10-16T00:57:19;17.00;99.90
782;DHT22;374;52.568;13.402;2022-10-16T00:59:45;16.20;99.90
782;DHT22;374;52.568;13.402;2022-10-16T01:02:13;16.20;99.90
782;DHT22;374;52.568;13.402;2022-10-16T01:04:45;16.50;99.90
782;DHT22;374;52.568;13.402;2022-10-16T01:07:30;16.20;99.90
782;DHT22;374;52.568;13.402;2022-10-16T01:12:42;16.20;99.90
782;DHT22;374;52.568;13.402;2022-10-16T01:15:34;16.20;99.90
782;DHT22;374;52.568;13.402;2022-10-16T01:18:15;16.20;99.90
782;DHT22;374;52.568;13.402;2022-10-16T01:20:56;16.20;99.90
782;DHT22;374;52.568;13.402;2022-10-16T01:28:19;16.20;99.90
782;DHT22;374;52.568;13.402;2022-10-16T01:30:47;17.00;99.90
782;DHT22;374;52.568;13.402;2022-10-16T01:33:22;16.20;99.90
782;DHT22;374;52.568;13.402;2022-10-16T01:35:55;16.20;99.90
782;DHT22;374;52.568;13.402;2022-10-16T01:38:38;16.00;99.90
782;DHT22;374;52.568;13.402;2022-10-16T01:41:11;16.20;99.90
782;DHT22;374;52.568;13.402;2022-10-16T01:43:46;16.20;99.90
782;DHT22;374;52.568;13.402;2022-10-16T01:46:14;16.10;99.90
782;DHT22;374;52.568;13.402;2022-10-16T01:48:42;16.20;99.90
782;DHT22;374;52.568;13.402;2022-10-16T01:51:10;16.20;99.90
782;DHT22;374;52.568;13.402;2022-10-16T01:53:37;16.20;99.90
782;DHT22;374;52.568;13.402;2022-10-16T01:56:07;16.20;99.90
782;DHT22;374;52.568;13.402;2022-10-16T01:58:36;16.20;99.90
782;DHT22;374;52.568;13.402;2022-10-16T02:01:04;16.10;99.90
782;DHT22;374;52.568;13.402;2022-10-16T02:03:30;16.20;99.90
782;DHT22;374;52.568;13.402;2022-10-16T02:05:58;16.20;99.90
782;DHT22;374;52.568;13.402;2022-10-16T02:08:26;16.20;99.90
782;DHT22;374;52.568;13.402;2022-10-16T02:10:55;16.10;99.90
782;DHT22;374;52.568;13.402;2022-10-16T02:15:52;16.20;99.90
782;DHT22;374;52.568;13.402;2022-10-16T02:18:17;16.20;99.90
782;DHT22;374;52.568;13.402;2022-10-16T02:20:53;16.20;99.90
782;DHT22;374;52.568;13.402;2022-10-16T02:23:29;16.20;99.90
782;DHT22;374;52.568;13.402;2022-10-16T02:25:58;16.10;99.90
782;DHT22;374;52.568;13.402;2022-10-16T02:28:31;16.20;99.90
782;DHT22;374;52.568;13.402;2022-10-16T02:31:03;16.20;99.90
782;DHT22;374;52.568;13.402;2022-10-16T02:33:30;16.20;99.90
782;DHT22;374;52.568;13.402;2022-10-16T02:35:57;16.20;99.90
782;DHT22;374;52.568;13.402;2022-10-16T02:38:24;16.20;99.90
782;DHT22;374;52.568;13.402;2022-10-16T02:40:50;16.20;99.90
782;DHT22;374;52.568;13.402;2022-10-16T02:43:16;16.20;99.90
782;DHT22;374;52.568;13.402;2022-10-16T02:45:41;16.20;99.90
782;DHT22;374;52.568;13.402;2022-10-16T02:48:07;16.20;99.90
782;DHT22;374;52.568;13.402;2022-10-16T02:50:32;16.20;99.90
782;DHT22;374;52.568;13.402;2022-10-16T02:52:58;16.20;99.90
782;DHT22;374;52.568;13.402;2022-10-16T02:55:24;16.40;99.90
782;DHT22;374;52.568;13.402;2022-10-16T02:57:49;16.10;99.90
782;DHT22;374;52.568;13.402;2022-10-16T03:00:16;16.20;99.90
782;DHT22;374;52.568;13.402;2022-10-16T03:02:42;16.20;99.90
782;DHT22;374;52.568;13.402;2022-10-16T03:05:08;16.00;99.90
782;DHT22;374;52.568;13.402;2022-10-16T03:07:34;16.10;99.90
782;DHT22;374;52.568;13.402;2022-10-16T03:10:00;16.20;99.90
782;DHT22;374;52.568;13.402;2022-10-16T03:12:28;16.10;99.90
782;DHT22;374;52.568;13.402;2022-10-16T03:14:55;16.10;99.90
782;DHT22;374;52.568;13.402;2022-10-16T03:17:22;16.10;99.90
782;DHT22;374;52.568;13.402;2022-10-16T03:19:47;16.40;99.90
782;DHT22;374;52.568;13.402;2022-10-16T03:22:13;16.10;99.90
782;DHT22;374;52.568;13.402;2022-10-16T03:24:38;16.10;99.90
782;DHT22;374;52.568;13.402;2022-10-16T03:27:04;16.50;99.90
782;DHT22;374;52.568;13.402;2022-10-16T03:29:29;16.10;99.90
782;DHT22;374;52.568;13.402;2022-10-16T03:31:56;16.00;99.90
782;DHT22;374;52.568;13.402;2022-10-16T03:34:21;16.10;99.90
782;DHT22;374;52.568;13.402;2022-10-16T03:36:47;16.00;99.90
782;DHT22;374;52.568;13.402;2022-10-16T03:39:12;16.00;99.90
782;DHT22;374;52.568;13.402;2022-10-16T03:41:38;16.70;99.90
782;DHT22;374;52.568;13.402;2022-10-16T03:44:03;16.00;99.90
782;DHT22;374;52.568;13.402;2022-10-16T03:46:29;16.00;99.90
782;DHT22;374;52.568;13.402;2022-10-16T03:48:54;16.00;99.90
782;DHT22;374;52.568;13.402;2022-10-16T03:51:20;16.00;99.90
782;DHT22;374;52.568;13.402;2022-10-16T03:53:45;16.00;99.90
782;DHT22;374;52.568;13.402;2022-10-16T03:56:11;16.00;99.90
782;DHT22;374;52.568;13.402;2022-10-16T03:58:36;15.90;99.90
782;DHT22;374;52.568;13.402;2022-10-16T04:01:02;15.90;99.90
782;DHT22;374;52.568;13.402;2022-10-16T04:03:27;15.90;99.90
782;DHT22;374;52.568;13.402;2022-10-16T04:05:53;15.90;99.90
782;DHT22;374;52.568;13.402;2022-10-16T04:08:18;15.90;99.90
782;DHT22;374;52.568;13.402;2022-10-16T04:10:44;15.90;99.90
782;DHT22;374;52.568;13.402;2022-10-16T04:13:10;15.90;99.90
782;DHT22;374;52.568;13.402;2022-10-16T04:15:36;15.90;99.90
782;DHT22;374;52.568;13.402;2022-10-16T04:18:02;15.90;99.90
782;DHT22;374;52.568;13.402;2022-10-16T04:20:27;15.90;99.90
782;DHT22;374;52.568;13.402;2022-10-16T04:22:53;15.30;99.90
782;DHT22;374;52.568;13.402;2022-10-16T04:25:18;15.40;99.90
782;DHT22;374;52.568;13.402;2022-10-16T04:27:43;15.90;99.90
782;DHT22;374;52.568;13.402;2022-10-16T04:30:09;15.90;99.90
782;DHT22;374;52.568;13.402;2022-10-16T04:32:35;15.90;99.90
782;DHT22;374;52.568;13.402;2022-10-16T04:35:00;15.90;99.90
782;DHT22;374;52.568;13.402;2022-10-16T04:37:27;16.00;99.90
782;DHT22;374;52.568;13.402;2022-10-16T04:39:53;15.90;99.90
782;DHT22;374;52.568;13.402;2022-10-16T04:42:20;15.90;99.90
782;DHT22;374;52.568;13.402;2022-10-16T04:44:45;15.90;99.90
782;DHT22;374;52.568;13.402;2022-10-16T04:47:11;15.80;99.90
782;DHT22;374;52.568;13.402;2022-10-16T04:49:37;15.80;99.90
782;DHT22;374;52.568;13.402;2022-10-16T04:52:03;15.80;99.90
782;DHT22;374;52.568;13.402;2022-10-16T04:54:28;15.80;99.90
782;DHT22;374;52.568;13.402;2022-10-16T04:56:54;15.80;99.90
782;DHT22;374;52.568;13.402;2022-10-16T04:59:20;15.80;99.90
782;DHT22;374;52.568;13.402;2022-10-16T05:01:46;15.80;99.90
782;DHT22;374;52.568;13.402;2022-10-16T05:04:11;15.80;99.90
782;DHT22;374;52.568;13.402;2022-10-16T05:06:37;15.60;99.90
782;DHT22;374;52.568;13.402;2022-10-16T05:09:07;16.10;99.90
782;DHT22;374;52.568;13.402;2022-10-16T05:11:33;15.80;99.90
782;DHT22;374;52.568;13.402;2022-10-16T05:13:59;15.70;99.90
782;DHT22;374;52.568;13.402;2022-10-16T05:16:25;16.00;99.90
782;DHT22;374;52.568;13.402;2022-10-16T05:18:54;15.70;99.90
782;DHT22;374;52.568;13.402;2022-10-16T05:21:20;15.70;99.90
782;DHT22;374;52.568;13.402;2022-10-16T05:23:46;15.70;99.90
782;DHT22;374;52.568;13.402;2022-10-16T05:26:12;15.70;99.90
782;DHT22;374;52.568;13.402;2022-10-16T05:28:37;15.80;99.90
782;DHT22;374;52.568;13.402;2022-10-16T05:31:07;15.60;99.90
782;DHT22;374;52.568;13.402;2022-10-16T05:33:33;16.50;99.90
782;DHT22;374;52.568;13.402;2022-10-16T05:36:03;15.10;99.90
782;DHT22;374;52.568;13.402;2022-10-16T05:38:29;15.70;99.90
782;DHT22;374;52.568;13.402;2022-10-16T05:40:54;15.50;99.90
782;DHT22;374;52.568;13.402;2022-10-16T05:43:21;16.60;99.90
782;DHT22;374;52.568;13.402;2022-10-16T05:45:57;15.60;99.90
782;DHT22;374;52.568;13.402;2022-10-16T05:48:23;16.00;99.90
782;DHT22;374;52.568;13.402;2022-10-16T05:51:00;15.70;99.90
782;DHT22;374;52.568;13.402;2022-10-16T05:53:27;15.70;99.90
782;DHT22;374;52.568;13.402;2022-10-16T05:55:53;15.70;99.90
782;DHT22;374;52.568;13.402;2022-10-16T05:58:19;15.70;99.90
782;DHT22;374;52.568;13.402;2022-10-16T06:00:52;15.70;99.90
782;DHT22;374;52.568;13.402;2022-10-16T06:03:17;15.70;99.90
782;DHT22;374;52.568;13.402;2022-10-16T06:05:43;15.70;99.90
782;DHT22;374;52.568;13.402;2022-10-16T06:08:08;15.70;99.90
782;DHT22;374;52.568;13.402;2022-10-16T06:10:34;15.60;99.90
782;DHT22;374;52.568;13.402;2022-10-16T06:12:59;15.80;99.90
782;DHT22;374;52.568;13.402;2022-10-16T06:15:24;15.70;99.90
782;DHT22;374;52.568;13.402;2022-10-16T06:17:50;15.80;99.90
782;DHT22;374;52.568;13.402;2022-10-16T06:20:15;15.80;99.90
782;DHT22;374;52.568;13.402;2022-10-16T06:22:41;15.70;99.90
782;DHT22;374;52.568;13.402;2022-10-16T06:25:07;15.80;99.90
782;DHT22;374;52.568;13.402;2022-10-16T06:27:32;15.80;99.90
782;DHT22;374;52.568;13.402;2022-10-16T06:29:58;15.80;99.90
782;DHT22;374;52.568;13.402;2022-10-16T06:32:23;15.80;99.90
782;DHT22;374;52.568;13.402;2022-10-16T06:34:49;15.80;99.90
782;DHT22;374;52.568;13.402;2022-10-16T06:37:14;15.80;99.90
782;DHT22;374;52.568;13.402;2022-10-16T06:39:40;15.80;99.90
782;DHT22;374;52.568;13.402;2022-10-16T06:42:05;15.80;99.90
782;DHT22;374;52.568;13.402;2022-10-16T06:44:31;15.80;99.90
782;DHT22;374;52.568;13.402;2022-10-16T06:46:56;15.80;99.90
782;DHT22;374;52.568;13.402;2022-10-16T06:49:21;15.80;99.90
782;DHT22;374;52.568;13.402;2022-10-16T06:51:48;15.80;99.90
782;DHT22;374;52.568;13.402;2022-10-16T06:54:15;15.90;99.90
782;DHT22;374;52.568;13.402;2022-10-16T06:56:41;15.90;99.90
782;DHT22;374;52.568;13.402;2022-10-16T06:59:07;15.90;99.90
782;DHT22;374;52.568;13.402;2022-10-16T07:01:33;15.90;99.90
782;DHT22;374;52.568;13.402;2022-10-16T07:03:58;15.30;99.90
782;DHT22;374;52.568;13.402;2022-10-16T07:06:26;15.40;99.90
782;DHT22;374;52.568;13.402;2022-10-16T07:08:51;15.70;99.90
782;DHT22;374;52.568;13.402;2022-10-16T07:11:20;15.40;99.90
782;DHT22;374;52.568;13.402;2022-10-16T07:13:46;15.50;99.90
782;DHT22;374;52.568;13.402;2022-10-16T07:16:18;16.00;99.90
782;DHT22;374;52.568;13.402;2022-10-16T07:18:44;16.00;99.90
782;DHT22;374;52.568;13.402;2022-10-16T07:21:19;16.00;99.90
782;DHT22;374;52.568;13.402;2022-10-16T07:23:50;16.10;99.90
782;DHT22;374;52.568;13.402;2022-10-16T07:26:15;16.10;99.90
782;DHT22;374;52.568;13.402;2022-10-16T07:28:42;16.40;99.90
782;DHT22;374;52.568;13.402;2022-10-16T07:31:11;15.50;99.90
782;DHT22;374;52.568;13.402;2022-10-16T07:33:38;16.20;99.90
782;DHT22;374;52.568;13.402;2022-10-16T07:36:05;16.10;99.90
782;DHT22;374;52.568;13.402;2022-10-16T07:38:30;16.20;99.90
782;DHT22;374;52.568;13.402;2022-10-16T07:40:58;16.20;99.90
782;DHT22;374;52.568;13.402;2022-10-16T07:43:24;16.30;99.90
782;DHT22;374;52.568;13.402;2022-10-16T07:45:50;16.10;99.90
782;DHT22;374;52.568;13.402;2022-10-16T07:48:16;16.30;99.90
782;DHT22;374;52.568;13.402;2022-10-16T07:50:43;16.30;99.90
782;DHT22;374;52.568;13.402;2022-10-16T07:53:09;16.40;99.90
782;DHT22;374;52.568;13.402;2022-10-16T07:55:34;17.30;99.90
782;DHT22;374;52.568;13.402;2022-10-16T07:58:00;16.20;99.90
782;DHT22;374;52.568;13.402;2022-10-16T08:00:26;16.40;99.90
782;DHT22;374;52.568;13.402;2022-10-16T08:02:51;16.40;99.90
782;DHT22;374;52.568;13.402;2022-10-16T08:05:17;16.40;99.90
782;DHT22;374;52.568;13.402;2022-10-16T08:07:42;16.50;99.90
782;DHT22;374;52.568;13.402;2022-10-16T08:10:16;16.50;99.90
782;DHT22;374;52.568;13.402;2022-10-16T08:12:42;16.50;99.90
782;DHT22;374;52.568;13.402;2022-10-16T08:15:08;16.50;99.90
782;DHT22;374;52.568;13.402;2022-10-16T08:17:34;16.50;99.90
782;DHT22;374;52.568;13.402;2022-10-16T08:20:00;16.40;99.90
782;DHT22;374;52.568;13.402;2022-10-16T08:22:26;16.90;99.90
782;DHT22;374;52.568;13.402;2022-10-16T08:24:51;16.00;99.90
782;DHT22;374;52.568;13.402;2022-10-16T08:27:17;16.00;99.90
782;DHT22;374;52.568;13.402;2022-10-16T08:29:42;17.10;99.90
782;DHT22;374;52.568;13.402;2022-10-16T08:32:07;16.00;99.90
782;DHT22;374;52.568;13.402;2022-10-16T08:34:33;16.70;99.90
782;DHT22;374;52.568;13.402;2022-10-16T08:36:59;16.70;99.90
782;DHT22;374;52.568;13.402;2022-10-16T08:39:24;16.70;99.90
782;DHT22;374;52.568;13.402;2022-10-16T08:41:57;17.50;99.90
782;DHT22;374;52.568;13.402;2022-10-16T08:48:08;16.70;99.90
782;DHT22;374;52.568;13.402;2022-10-16T08:50:40;16.80;99.90
782;DHT22;374;52.568;13.402;2022-10-16T08:53:06;16.80;99.90
782;DHT22;374;52.568;13.402;2022-10-16T08:55:46;16.90;99.90
782;DHT22;374;52.568;13.402;2022-10-16T08:58:16;16.80;99.90
782;DHT22;374;52.568;13.402;2022-10-16T09:00:49;16.90;99.90
782;DHT22;374;52.568;13.402;2022-10-16T09:08:52;17.10;99.90
782;DHT22;374;52.568;13.402;2022-10-16T09:11:56;17.10;99.90
782;DHT22;374;52.568;13.402;2022-10-16T09:17:56;17.40;99.90
782;DHT22;374;52.568;13.402;2022-10-16T09:20:32;17.60;99.90
782;DHT22;374;52.568;13.402;2022-10-16T09:25:43;17.80;99.90
782;DHT22;374;52.568;13.402;2022-10-16T09:28:10;17.90;99.90
782;DHT22;374;52.568;13.402;2022-10-16T09:30:35;18.00;99.90
782;DHT22;374;52.568;13.402;2022-10-16T09:33:02;18.10;99.90
782;DHT22;374;52.568;13.402;2022-10-16T09:38:01;18.20;99.90
782;DHT22;374;52.568;13.402;2022-10-16T09:40:30;18.20;99.90
782;DHT22;374;52.568;13.402;2022-10-16T09:43:22;18.20;99.90
782;DHT22;374;52.568;13.402;2022-10-16T09:45:56;18.20;99.90
782;DHT22;374;52.568;13.402;2022-10-16T09:48:22;18.20;99.90
782;DHT22;374;52.568;13.402;2022-10-16T09:50:59;18.20;99.90
782;DHT22;374;52.568;13.402;2022-10-16T09:53:36;18.20;99.90
782;DHT22;374;52.568;13.402;2022-10-16T09:56:03;18.20;99.90
782;DHT22;374;52.568;13.402;2022-10-16T09:58:31;18.30;99.90
782;DHT22;374;52.568;13.402;2022-10-16T10:00:58;18.30;99.90
782;DHT22;374;52.568;13.402;2022-10-16T10:03:40;18.30;99.90
782;DHT22;374;52.568;13.402;2022-10-16T10:06:25;18.30;99.90
782;DHT22;374;52.568;13.402;2022-10-16T10:08:54;18.30;99.90
782;DHT22;374;52.568;13.402;2022-10-16T10:11:43;18.30;99.90
782;DHT22;374;52.568;13.402;2022-10-16T10:14:33;18.30;99.90
782;DHT22;374;52.568;13.402;2022-10-16T10:20:01;18.30;99.90
782;DHT22;374;52.568;13.402;2022-10-16T10:22:40;18.30;99.90
782;DHT22;374;52.568;13.402;2022-10-16T10:27:53;18.30;99.90
782;DHT22;374;52.568;13.402;2022-10-16T10:33:20;18.30;99.90
782;DHT22;374;52.568;13.402;2022-10-16T10:39:11;18.30;99.90
782;DHT22;374;52.568;13.402;2022-10-16T10:44:31;18.30;99.90
782;DHT22;374;52.568;13.402;2022-10-16T10:53:00;18.40;99.90
782;DHT22;374;52.568;13.402;2022-10-16T10:55:56;18.30;99.90
782;DHT22;374;52.568;13.402;2022-10-16T10:58:42;18.50;99.90
782;DHT22;374;52.568;13.402;2022-10-16T11:01:16;18.50;99.90
782;DHT22;374;52.568;13.402;2022-10-16T11:04:10;17.90;99.90
782;DHT22;374;52.568;13.402;2022-10-16T11:06:43;18.50;99.90
782;DHT22;374;52.568;13.402;2022-10-16T11:09:19;18.50;99.90
782;DHT22;374;52.568;13.402;2022-10-16T11:12:22;18.70;99.90
782;DHT22;374;52.568;13.402;2022-10-16T11:18:12;18.60;99.90
782;DHT22;374;52.568;13.402;2022-10-16T11:20:56;18.70;99.90
782;DHT22;374;52.568;13.402;2022-10-16T11:24:00;18.50;99.90
782;DHT22;374;52.568;13.402;2022-10-16T11:26:30;18.60;99.90
782;DHT22;374;52.568;13.402;2022-10-16T11:28:58;18.70;99.90
782;DHT22;374;52.568;13.402;2022-10-16T11:31:38;18.70;99.90
782;DHT22;374;52.568;13.402;2022-10-16T11:39:28;18.70;99.90
782;DHT22;374;52.568;13.402;2022-10-16T11:45:23;18.80;99.90
782;DHT22;374;52.568;13.402;2022-10-16T11:48:00;18.50;99.90
782;DHT22;374;52.568;13.402;2022-10-16T11:50:37;19.20;99.90
782;DHT22;374;52.568;13.402;2022-10-16T11:56:20;18.40;99.90
782;DHT22;374;52.568;13.402;2022-10-16T12:01:57;18.30;99.90
782;DHT22;374;52.568;13.402;2022-10-16T12:04:38;18.20;99.90
782;DHT22;374;52.568;13.402;2022-10-16T12:07:22;17.90;99.90
782;DHT22;374;52.568;13.402;2022-10-16T12:12:50;18.20;99.90
782;DHT22;374;52.568;13.402;2022-10-16T12:15:51;17.70;99.90
782;DHT22;374;52.568;13.402;2022-10-16T12:18:24;18.20;99.90
782;DHT22;374;52.568;13.402;2022-10-16T12:21:05;18.80;99.90
782;DHT22;374;52.568;13.402;2022-10-16T12:24:02;18.20;99.90
782;DHT22;374;52.568;13.402;2022-10-16T12:26:52;17.50;99.90
782;DHT22;374;52.568;13.402;2022-10-16T12:29:40;18.20;99.90
782;DHT22;374;52.568;13.402;2022-10-16T12:32:30;18.20;99.90
782;DHT22;374;52.568;13.402;2022-10-16T12:38:33;18.10;99.90
782;DHT22;374;52.568;13.402;2022-10-16T12:44:57;18.10;99.90
782;DHT22;374;52.568;13.402;2022-10-16T12:47:36;18.20;99.90
782;DHT22;374;52.568;13.402;2022-10-16T13:12:17;18.10;99.90
782;DHT22;374;52.568;13.402;2022-10-16T13:18:19;18.10;99.90
782;DHT22;374;52.568;13.402;2022-10-16T13:23:43;18.10;99.90
782;DHT22;374;52.568;13.402;2022-10-16T13:26:49;18.00;99.90
782;DHT22;374;52.568;13.402;2022-10-16T13:29:18;18.30;99.90
782;DHT22;374;52.568;13.402;2022-10-16T13:31:48;18.50;99.90
782;DHT22;374;52.568;13.402;2022-10-16T13:34:20;19.20;99.90
782;DHT22;374;52.568;13.402;2022-10-16T13:36:51;17.40;99.90
782;DHT22;374;52.568;13.402;2022-10-16T13:39:29;18.20;99.90
782;DHT22;374;52.568;13.402;2022-10-16T13:42:04;17.70;99.90
782;DHT22;374;52.568;13.402;2022-10-16T13:44:51;18.10;99.90
782;DHT22;374;52.568;13.402;2022-10-16T13:47:20;18.80;99.90
782;DHT22;374;52.568;13.402;2022-10-16T13:49:46;17.30;99.90
782;DHT22;374;52.568;13.402;2022-10-16T13:52:20;17.40;99.90
782;DHT22;374;52.568;13.402;2022-10-16T13:54:59;18.20;99.90
782;DHT22;374;52.568;13.402;2022-10-16T13:57:44;18.10;99.90
782;DHT22;374;52.568;13.402;2022-10-16T14:00:23;18.10;99.90
782;DHT22;374;52.568;13.402;2022-10-16T14:03:13;18.10;99.90
782;DHT22;374;52.568;13.402;2022-10-16T14:05:47;18.10;99.90
782;DHT22;374;52.568;13.402;2022-10-16T14:08:19;18.00;99.90
782;DHT22;374;52.568;13.402;2022-10-16T14:11:01;18.10;99.90
782;DHT22;374;52.568;13.402;2022-10-16T14:13:46;17.90;99.90
782;DHT22;374;52.568;13.402;2022-10-16T14:16:51;18.10;99.90
782;DHT22;374;52.568;13.402;2022-10-16T14:19:30;18.10;99.90
782;DHT22;374;52.568;13.402;2022-10-16T14:21:57;18.20;99.90
782;DHT22;374;52.568;13.402;2022-10-16T14:24:33;18.20;99.90
782;DHT22;374;52.568;13.402;2022-10-16T14:27:00;17.40;99.90
782;DHT22;374;52.568;13.402;2022-10-16T14:29:30;17.80;99.90
782;DHT22;374;52.568;13.402;2022-10-16T14:32:22;18.50;99.90
782;DHT22;374;52.568;13.402;2022-10-16T14:34:53;18.50;99.90
782;DHT22;374;52.568;13.402;2022-10-16T14:37:31;17.30;99.90
782;DHT22;374;52.568;13.402;2022-10-16T14:40:02;18.00;99.90
782;DHT22;374;52.568;13.402;2022-10-16T14:42:38;18.10;99.90
782;DHT22;374;52.568;13.402;2022-10-16T14:45:09;18.90;99.90
782;DHT22;374;52.568;13.402;2022-10-16T14:47:46;18.10;99.90
782;DHT22;374;52.568;13.402;2022-10-16T14:50:17;18.00;99.90
782;DHT22;374;52.568;13.402;2022-10-16T14:52:44;18.10;99.90
782;DHT22;374;52.568;13.402;2022-10-16T14:55:10;18.90;99.90
782;DHT22;374;52.568;13.402;2022-10-16T14:57:52;17.70;99.90
782;DHT22;374;52.568;13.402;2022-10-16T15:00:25;18.00;99.90
782;DHT22;374;52.568;13.402;2022-10-16T15:03:03;18.00;99.90
782;DHT22;374;52.568;13.402;2022-10-16T15:05:37;18.10;99.90
782;DHT22;374;52.568;13.402;2022-10-16T15:08:10;18.00;99.90
782;DHT22;374;52.568;13.402;2022-10-16T15:10:40;17.90;99.90
782;DHT22;374;52.568;13.402;2022-10-16T15:13:20;18.10;99.90
782;DHT22;374;52.568;13.402;2022-10-16T15:15:55;18.10;99.90
782;DHT22;374;52.568;13.402;2022-10-16T15:18:36;18.00;99.90
782;DHT22;374;52.568;13.402;2022-10-16T15:21:08;18.00;99.90
782;DHT22;374;52.568;13.402;2022-10-16T15:24:16;18.00;99.90
782;DHT22;374;52.568;13.402;2022-10-16T15:27:09;17.90;99.90
782;DHT22;374;52.568;13.402;2022-10-16T15:30:10;18.00;99.90
782;DHT22;374;52.568;13.402;2022-10-16T15:33:21;17.50;99.90
782;DHT22;374;52.568;13.402;2022-10-16T15:36:17;18.00;99.90
782;DHT22;374;52.568;13.402;2022-10-16T15:39:56;17.90;99.90
782;DHT22;374;52.568;13.402;2022-10-16T15:42:42;18.00;99.90
782;DHT22;374;52.568;13.402;2022-10-16T15:45:12;18.00;99.90
782;DHT22;374;52.568;13.402;2022-10-16T15:47:47;17.90;99.90
782;DHT22;374;52.568;13.402;2022-10-16T15:53:27;17.80;99.90
782;DHT22;374;52.568;13.402;2022-10-16T15:56:10;17.80;99.90
782;DHT22;374;52.568;13.402;2022-10-16T15:59:01;17.80;99.90
782;DHT22;374;52.568;13.402;2022-10-16T16:01:40;18.70;99.90
782;DHT22;374;52.568;13.402;2022-10-16T16:04:12;17.80;99.90
782;DHT22;374;52.568;13.402;2022-10-16T16:06:46;18.20;99.90
782;DHT22;374;52.568;13.402;2022-10-16T16:09:14;18.30;99.90
782;DHT22;374;52.568;13.402;2022-10-16T16:11:40;17.90;99.90
782;DHT22;374;52.568;13.402;2022-10-16T16:14:16;17.30;99.90
782;DHT22;374;52.568;13.402;2022-10-16T16:16:42;17.60;99.90
782;DHT22;374;52.568;13.402;2022-10-16T16:19:12;17.60;99.90
782;DHT22;374;52.568;13.402;2022-10-16T16:21:38;17.90;99.90
782;DHT22;374;52.568;13.402;2022-10-16T16:24:06;17.70;99.90
782;DHT22;374;52.568;13.402;2022-10-16T16:26:34;17.50;99.90
782;DHT22;374;52.568;13.402;2022-10-16T16:29:02;16.50;99.90
782;DHT22;374;52.568;13.402;2022-10-16T16:31:30;17.40;99.90
782;DHT22;374;52.568;13.402;2022-10-16T16:33:59;18.20;99.90
782;DHT22;374;52.568;13.402;2022-10-16T16:36:25;17.50;99.90
782;DHT22;374;52.568;13.402;2022-10-16T16:38:54;17.40;99.90
782;DHT22;374;52.568;13.402;2022-10-16T16:41:24;17.50;99.90
782;DHT22;374;52.568;13.402;2022-10-16T16:43:51;17.00;99.90
782;DHT22;374;52.568;13.402;2022-10-16T16:46:18;17.40;99.90
782;DHT22;374;52.568;13.402;2022-10-16T16:48:44;17.90;99.90
782;DHT22;374;52.568;13.402;2022-10-16T16:51:13;17.60;99.90
782;DHT22;374;52.568;13.402;2022-10-16T16:53:46;17.60;99.90
782;DHT22;374;52.568;13.402;2022-10-16T16:56:18;16.90;99.90
782;DHT22;374;52.568;13.402;2022-10-16T16:58:48;17.20;99.90
782;DHT22;374;52.568;13.402;2022-10-16T17:01:14;16.60;99.90
782;DHT22;374;52.568;13.402;2022-10-16T17:03:43;16.90;99.90
782;DHT22;374;52.568;13.402;2022-10-16T17:06:13;17.40;99.90
782;DHT22;374;52.568;13.402;2022-10-16T17:08:53;17.30;99.90
782;DHT22;374;52.568;13.402;2022-10-16T17:11:30;17.20;99.90
782;DHT22;374;52.568;13.402;2022-10-16T17:13:57;17.10;99.90
782;DHT22;374;52.568;13.402;2022-10-16T17:16:29;16.80;99.90
782;DHT22;374;52.568;13.402;2022-10-16T17:18:58;17.30;99.90
782;DHT22;374;52.568;13.402;2022-10-16T17:21:23;17.90;99.90
782;DHT22;374;52.568;13.402;2022-10-16T17:23:51;16.50;99.90
782;DHT22;374;52.568;13.402;2022-10-16T17:26:17;18.00;99.90
782;DHT22;374;52.568;13.402;2022-10-16T17:28:43;16.70;99.90
782;DHT22;374;52.568;13.402;2022-10-16T17:31:18;17.00;99.90
782;DHT22;374;52.568;13.402;2022-10-16T17:33:44;16.90;99.90
782;DHT22;374;52.568;13.402;2022-10-16T17:36:10;16.80;99.90
782;DHT22;374;52.568;13.402;2022-10-16T17:38:36;16.80;99.90
782;DHT22;374;52.568;13.402;2022-10-16T17:43:37;16.70;99.90
782;DHT22;374;52.568;13.402;2022-10-16T17:46:12;16.70;99.90
782;DHT22;374;52.568;13.402;2022-10-16T17:48:42;16.70;99.90
782;DHT22;374;52.568;13.402;2022-10-16T17:51:09;16.40;99.90
782;DHT22;374;52.568;13.402;2022-10-16T17:53:37;16.60;99.90
782;DHT22;374;52.568;13.402;2022-10-16T17:56:08;17.20;99.90
782;DHT22;374;52.568;13.402;2022-10-16T17:58:34;17.30;99.90
782;DHT22;374;52.568;13.402;2022-10-16T18:01:14;17.20;99.90
782;DHT22;374;52.568;13.402;2022-10-16T18:03:39;16.50;99.90
782;DHT22;374;52.568;13.402;2022-10-16T18:06:05;15.70;99.90
782;DHT22;374;52.568;13.402;2022-10-16T18:08:30;16.30;99.90
782;DHT22;374;52.568;13.402;2022-10-16T18:10:56;16.40;99.90
782;DHT22;374;52.568;13.402;2022-10-16T18:13:21;16.30;99.90
782;DHT22;374;52.568;13.402;2022-10-16T18:16:00;16.70;99.90
782;DHT22;374;52.568;13.402;2022-10-16T18:18:27;16.10;99.90
782;DHT22;374;52.568;13.402;2022-10-16T18:21:00;16.10;99.90
782;DHT22;374;52.568;13.402;2022-10-16T18:23:29;16.20;99.90
782;DHT22;374;52.568;13.402;2022-10-16T18:25:55;17.10;99.90
782;DHT22;374;52.568;13.402;2022-10-16T18:28:21;15.80;99.90
782;DHT22;374;52.568;13.402;2022-10-16T18:30:57;16.00;99.90
782;DHT22;374;52.568;13.402;2022-10-16T18:33:23;16.10;99.90
782;DHT22;374;52.568;13.402;2022-10-16T18:35:49;16.20;99.90